Fowlkes, Tennessee
Current Conditions -  °F | °C
As of 8:55 PM on Monday 22 Dec 2014 (Local Time) from KDYR Reporting Station
Overcast Overcast  
Wind Chill: 54°   Ceiling: 1400
Heat Index: 54°   Visibility: 10mi
Dew Point: 43°   Wind: 3mph
Humidity: 67%   Direction: 160°SSE
Pressure: 29.65"   Gusts: NA
Location:  35.97°N, 89.39°W
Report Text: KDYR 230255Z 16003KT 10SM FEW010 BKN014 OVC024 12/06 A2965 RMK AO1 52007
Loading
Personal Weather Stations






























Interactive Weather Map New forecast layout! Learn more

10-Day Weather Forecast

Advertisements
Track Severe Weather on mobile